createdAt,value
2018-07-16T00:00:14.845Z,8.33
2018-07-16T00:02:43.217Z,8.67
2018-07-16T00:05:11.515Z,9.07
2018-07-16T00:07:39.833Z,8.50
2018-07-16T00:10:08.124Z,7.97
2018-07-16T00:12:36.420Z,9.47
2018-07-16T00:15:04.806Z,8.00
2018-07-16T00:17:33.239Z,8.20
2018-07-16T00:20:01.625Z,8.27
2018-07-16T00:22:29.876Z,7.73
2018-07-16T00:24:58.155Z,8.40
2018-07-16T00:27:26.411Z,8.40
2018-07-16T00:29:54.652Z,7.67
2018-07-16T00:32:22.914Z,7.07
2018-07-16T00:34:51.140Z,7.27
2018-07-16T00:37:19.391Z,7.47
2018-07-16T00:39:47.644Z,7.37
2018-07-16T00:42:15.905Z,7.40
2018-07-16T00:44:44.143Z,7.70
2018-07-16T00:47:12.392Z,8.00
2018-07-16T00:49:40.636Z,8.00
2018-07-16T00:52:08.887Z,7.63
2018-07-16T00:54:37.145Z,8.03
2018-07-16T00:57:05.402Z,7.10
2018-07-16T00:59:33.637Z,7.13
2018-07-16T01:02:01.926Z,10.30
2018-07-16T01:04:30.177Z,8.13
2018-07-16T01:06:58.412Z,8.33
2018-07-16T01:09:26.653Z,7.40
2018-07-16T01:11:54.903Z,8.07
2018-07-16T01:14:23.144Z,8.13
2018-07-16T01:16:51.408Z,8.43
2018-07-16T01:19:19.655Z,7.73
2018-07-16T01:21:47.924Z,7.50
2018-07-16T01:24:16.181Z,8.33
2018-07-16T01:26:44.419Z,7.37
2018-07-16T01:29:12.664Z,6.93
2018-07-16T01:31:40.908Z,9.23
2018-07-16T01:34:09.140Z,7.87
2018-07-16T01:36:37.385Z,7.27
2018-07-16T01:39:05.781Z,7.63
2018-07-16T01:41:34.172Z,7.27
2018-07-16T01:44:02.440Z,6.27
2018-07-16T01:46:30.685Z,6.90
2018-07-16T01:48:58.928Z,7.00
2018-07-16T01:51:27.172Z,8.73
2018-07-16T01:53:55.464Z,7.00
2018-07-16T01:56:23.717Z,7.50
2018-07-16T01:58:51.986Z,7.37
2018-07-16T02:01:20.256Z,7.47
2018-07-16T02:03:48.515Z,7.27
2018-07-16T02:08:51.324Z,6.93
2018-07-16T02:11:19.573Z,6.60
2018-07-16T02:13:47.954Z,7.27
2018-07-16T02:16:16.219Z,7.07
2018-07-16T02:18:44.452Z,7.10
2018-07-16T02:21:12.709Z,7.63
2018-07-16T02:23:40.980Z,6.77
2018-07-16T02:26:09.220Z,7.13
2018-07-16T02:28:37.467Z,6.70
2018-07-16T02:31:05.718Z,6.43
2018-07-16T02:33:33.984Z,6.77
2018-07-16T02:36:02.254Z,6.20
2018-07-16T02:38:30.525Z,6.60
2018-07-16T02:40:58.807Z,6.23
2018-07-16T02:43:27.048Z,6.90
2018-07-16T02:45:55.318Z,6.63
2018-07-16T02:48:23.574Z,6.93
2018-07-16T02:50:51.816Z,6.30
2018-07-16T02:53:20.071Z,6.30
2018-07-16T02:55:48.394Z,6.47
2018-07-16T02:58:16.645Z,6.67
2018-07-16T03:00:44.892Z,6.70
2018-07-16T03:03:13.146Z,6.87
2018-07-16T03:05:41.389Z,6.10
2018-07-16T03:08:09.648Z,6.47
2018-07-16T03:10:37.960Z,6.40
2018-07-16T03:13:06.663Z,6.60
2018-07-16T03:15:34.908Z,6.33
2018-07-16T03:18:03.206Z,6.77
2018-07-16T03:20:31.421Z,7.30
2018-07-16T03:22:59.669Z,6.20
2018-07-16T03:25:27.937Z,6.73
2018-07-16T03:27:56.197Z,6.83
2018-07-16T03:30:24.476Z,6.70
2018-07-16T03:32:52.740Z,6.47
2018-07-16T03:35:20.984Z,6.50
2018-07-16T03:37:49.229Z,5.87
2018-07-16T03:40:17.468Z,6.37
2018-07-16T03:42:45.733Z,6.50
2018-07-16T03:45:13.967Z,6.17
2018-07-16T03:47:42.208Z,6.13
2018-07-16T03:50:10.473Z,6.10
2018-07-16T03:52:38.743Z,5.83
2018-07-16T03:55:06.988Z,6.60
2018-07-16T03:57:35.252Z,6.77
2018-07-16T04:00:03.529Z,6.30
2018-07-16T04:02:31.822Z,5.97
2018-07-16T04:05:00.036Z,6.20
2018-07-16T04:07:28.416Z,6.20
2018-07-16T04:09:56.653Z,5.97
2018-07-16T04:12:24.900Z,5.83
2018-07-16T04:14:53.148Z,5.67
2018-07-16T04:17:21.409Z,6.07
2018-07-16T04:19:49.653Z,5.80
2018-07-16T04:22:17.905Z,6.10
2018-07-16T04:24:46.148Z,6.27
2018-07-16T04:27:14.397Z,5.87
2018-07-16T04:29:42.632Z,5.50
2018-07-16T04:32:10.877Z,5.60
2018-07-16T04:34:39.129Z,5.10
2018-07-16T04:37:07.384Z,4.70
2018-07-16T04:39:35.631Z,4.60
2018-07-16T04:42:03.896Z,4.93
2018-07-16T04:44:32.145Z,5.47
2018-07-16T04:47:00.384Z,4.83
2018-07-16T04:49:28.641Z,4.70
2018-07-16T04:51:56.881Z,4.47
2018-07-16T04:54:25.128Z,4.83
2018-07-16T04:56:53.380Z,6.30
2018-07-16T04:59:21.896Z,6.93
2018-07-16T05:01:50.156Z,7.70
2018-07-16T05:04:18.424Z,5.60
2018-07-16T05:06:46.682Z,5.73
2018-07-16T05:09:14.921Z,5.50
2018-07-16T05:11:43.197Z,7.40
2018-07-16T05:14:11.469Z,7.60
2018-07-16T05:16:39.717Z,6.50
2018-07-16T05:19:07.970Z,7.67
2018-07-16T05:24:10.760Z,7.57
2018-07-16T05:26:38.996Z,6.70
2018-07-16T05:29:07.249Z,7.77
2018-07-16T05:31:35.552Z,7.53
2018-07-16T05:34:03.797Z,7.47
2018-07-16T05:36:32.068Z,8.77
2018-07-16T05:39:00.320Z,8.93
2018-07-16T05:41:28.596Z,10.07
2018-07-16T05:43:56.848Z,9.10
2018-07-16T05:46:25.111Z,8.93
2018-07-16T05:48:53.364Z,9.73
2018-07-16T05:51:21.625Z,8.87
2018-07-16T05:53:49.879Z,8.43
2018-07-16T05:56:18.144Z,8.87
2018-07-16T05:58:46.400Z,9.17
2018-07-16T06:01:14.664Z,10.60
2018-07-16T06:03:42.913Z,9.73
2018-07-16T06:06:11.159Z,8.83
2018-07-16T06:08:39.423Z,10.23
2018-07-16T06:11:07.668Z,10.10
2018-07-16T06:13:35.920Z,9.87
2018-07-16T06:16:04.188Z,9.40
2018-07-16T06:18:32.448Z,10.80
2018-07-16T06:21:00.754Z,9.40
2018-07-16T06:23:28.969Z,11.20
2018-07-16T06:25:57.226Z,11.17
2018-07-16T06:28:25.479Z,11.50
2018-07-16T06:30:53.738Z,11.00
2018-07-16T06:33:21.980Z,11.40
2018-07-16T06:35:50.228Z,11.87
2018-07-16T06:38:18.460Z,10.67
2018-07-16T06:40:46.899Z,10.60
2018-07-16T06:43:15.093Z,9.23
2018-07-16T06:45:43.347Z,13.17
2018-07-16T06:48:11.597Z,10.70
2018-07-16T06:50:39.886Z,9.57
2018-07-16T06:53:08.133Z,9.30
2018-07-16T06:55:36.389Z,8.30
2018-07-16T06:58:04.645Z,9.17
2018-07-16T07:00:32.896Z,8.40
2018-07-16T07:03:01.184Z,10.37
2018-07-16T07:05:29.584Z,9.17
2018-07-16T07:07:57.849Z,9.87
2018-07-16T07:10:26.120Z,9.33
2018-07-16T07:12:54.567Z,9.17
2018-07-16T07:15:22.848Z,8.70
2018-07-16T07:17:51.113Z,8.80
2018-07-16T07:20:19.402Z,9.23
2018-07-16T07:22:47.628Z,8.50
2018-07-16T07:25:15.884Z,7.47
2018-07-16T07:27:44.132Z,7.27
2018-07-16T07:30:12.376Z,8.07
2018-07-16T07:32:40.628Z,7.50
2018-07-16T07:35:08.915Z,8.17
2018-07-16T07:37:37.213Z,7.43
2018-07-16T07:40:05.601Z,8.93
2018-07-16T07:42:33.895Z,9.07
2018-07-16T07:45:02.153Z,7.47
2018-07-16T07:47:30.446Z,7.73
2018-07-16T07:49:58.688Z,8.07
2018-07-16T07:52:26.928Z,9.83
2018-07-16T07:54:55.462Z,8.57
2018-07-16T07:57:23.592Z,8.27
2018-07-16T07:59:51.849Z,7.70
2018-07-16T08:02:20.144Z,9.27
2018-07-16T08:04:48.420Z,6.07
2018-07-16T08:07:16.696Z,6.60
2018-07-16T08:09:44.973Z,8.77
2018-07-16T08:12:13.745Z,13.53
2018-07-16T08:14:43.241Z,7.83
2018-07-16T08:17:11.580Z,10.27
2018-07-16T08:19:39.945Z,13.27
2018-07-16T08:22:08.407Z,6.93
2018-07-16T08:24:36.690Z,6.90
2018-07-16T08:27:05.125Z,7.77
2018-07-16T08:29:33.404Z,6.10
2018-07-16T08:32:01.673Z,6.10
2018-07-16T08:34:29.987Z,5.97
2018-07-16T08:36:58.296Z,5.50
2018-07-16T08:39:26.528Z,5.40
2018-07-16T08:41:54.828Z,6.03
2018-07-16T08:44:23.081Z,5.70
2018-07-16T08:46:51.332Z,5.73
2018-07-16T08:49:19.576Z,5.37
2018-07-16T08:51:47.821Z,4.97
2018-07-16T08:54:16.095Z,4.30
2018-07-16T08:56:44.336Z,4.90
2018-07-16T08:59:12.661Z,5.20
2018-07-16T09:01:40.853Z,5.27
2018-07-16T09:04:09.139Z,4.23
2018-07-16T09:06:37.834Z,4.80
2018-07-16T09:09:06.372Z,5.50
2018-07-16T09:11:34.725Z,5.47
2018-07-16T09:14:02.985Z,4.40
2018-07-16T09:16:31.237Z,3.93
2018-07-16T09:18:59.489Z,4.03
2018-07-16T09:21:27.741Z,4.57
2018-07-16T09:23:56.041Z,4.27
2018-07-16T09:26:24.309Z,5.50
2018-07-16T09:28:52.548Z,4.40
2018-07-16T09:31:20.825Z,4.60
2018-07-16T09:33:49.648Z,4.00
2018-07-16T09:36:17.981Z,4.20
2018-07-16T09:38:46.224Z,3.90
2018-07-16T09:41:14.488Z,4.70
2018-07-16T09:43:42.747Z,5.20
2018-07-16T09:46:11.007Z,4.80
2018-07-16T09:48:39.269Z,4.70
2018-07-16T09:51:07.524Z,4.70
2018-07-16T09:53:35.825Z,4.53
2018-07-16T09:56:04.101Z,4.40
2018-07-16T09:58:32.372Z,4.00
2018-07-16T10:01:05.913Z,4.27
2018-07-16T10:03:34.209Z,5.07
2018-07-16T10:06:02.488Z,4.03
2018-07-16T10:08:30.778Z,4.17
2018-07-16T10:10:59.005Z,4.37
2018-07-16T10:13:27.313Z,3.87
2018-07-16T10:15:55.580Z,4.50
2018-07-16T10:18:23.831Z,4.10
2018-07-16T10:20:52.113Z,3.43
2018-07-16T10:23:20.380Z,3.90
2018-07-16T10:25:48.649Z,3.53
2018-07-16T10:28:16.926Z,3.40
2018-07-16T10:30:45.176Z,3.20
2018-07-16T10:33:13.433Z,3.53
2018-07-16T10:35:41.686Z,3.93
2018-07-16T10:38:10.075Z,3.90
2018-07-16T10:40:38.360Z,5.10
2018-07-16T10:43:06.653Z,4.97
2018-07-16T10:45:35.435Z,6.50
2018-07-16T10:48:03.733Z,4.67
2018-07-16T10:50:31.978Z,4.83
2018-07-16T10:53:00.245Z,4.40
2018-07-16T10:55:28.520Z,4.40
2018-07-16T10:57:56.776Z,4.93
2018-07-16T11:00:25.297Z,4.67
2018-07-16T11:02:53.633Z,4.30
2018-07-16T11:05:21.915Z,6.83
2018-07-16T11:07:50.180Z,5.17
2018-07-16T11:10:18.429Z,4.83
2018-07-16T11:12:46.805Z,3.90
2018-07-16T11:15:15.078Z,3.20
2018-07-16T11:17:43.349Z,3.03
2018-07-16T11:20:11.611Z,4.30
2018-07-16T11:22:40.021Z,3.60
2018-07-16T11:25:08.634Z,2.83
2018-07-16T11:27:36.901Z,2.70
2018-07-16T11:30:06.262Z,3.20
2018-07-16T11:32:34.531Z,3.33
2018-07-16T11:35:02.814Z,4.47
2018-07-16T11:37:31.072Z,2.57
2018-07-16T11:39:59.328Z,2.40
2018-07-16T11:42:27.588Z,2.67
2018-07-16T11:44:55.834Z,2.40
2018-07-16T11:47:24.084Z,2.60
2018-07-16T11:49:52.341Z,2.60
2018-07-16T11:52:20.651Z,2.50
2018-07-16T11:54:48.878Z,2.93
2018-07-16T11:57:17.218Z,2.40
2018-07-16T11:59:45.449Z,2.50
2018-07-16T12:02:13.760Z,2.70
2018-07-16T12:04:42.016Z,2.60
2018-07-16T12:07:10.292Z,2.70
2018-07-16T12:09:38.556Z,2.50
2018-07-16T12:12:06.857Z,2.43
2018-07-16T12:14:35.107Z,2.30
2018-07-16T12:17:03.365Z,3.27
2018-07-16T12:19:31.648Z,2.60
2018-07-16T12:21:59.899Z,2.70
2018-07-16T12:24:28.183Z,2.60
2018-07-16T12:26:56.420Z,2.90
2018-07-16T12:29:24.716Z,2.73
2018-07-16T12:31:52.967Z,2.97
2018-07-16T12:34:21.233Z,3.20
2018-07-16T12:36:49.476Z,4.13
2018-07-16T12:39:17.836Z,3.00
2018-07-16T12:41:46.127Z,2.50
2018-07-16T12:44:14.352Z,3.80
2018-07-16T12:46:42.596Z,3.10
2018-07-16T12:49:10.857Z,4.37
2018-07-16T12:51:39.104Z,2.90
2018-07-16T12:54:07.388Z,2.90
2018-07-16T12:56:35.675Z,2.70
2018-07-16T12:59:04.069Z,2.90
2018-07-16T13:01:32.332Z,3.40
2018-07-16T13:04:00.584Z,2.53
2018-07-16T13:06:28.831Z,3.07
2018-07-16T13:08:57.094Z,3.00
2018-07-16T13:11:25.552Z,2.60
2018-07-16T13:13:53.817Z,2.80
2018-07-16T13:16:22.106Z,3.10
2018-07-16T13:18:50.363Z,3.23
2018-07-16T13:21:18.646Z,2.90
2018-07-16T13:23:46.915Z,4.57
2018-07-16T13:26:15.291Z,2.80
2018-07-16T13:28:43.549Z,2.53
2018-07-16T13:31:12.132Z,2.97
2018-07-16T13:33:40.373Z,2.70
2018-07-16T13:36:08.662Z,2.80
2018-07-16T13:41:40.141Z,2.53
2018-07-16T13:44:08.413Z,2.50
2018-07-16T13:46:36.688Z,2.83
2018-07-16T13:49:04.920Z,3.53
2018-07-16T13:51:33.212Z,3.10
2018-07-16T13:54:01.905Z,2.90
2018-07-16T13:56:30.377Z,2.87
2018-07-16T13:58:58.854Z,3.67
2018-07-16T14:01:27.359Z,2.60
2018-07-16T14:03:55.596Z,2.20
2018-07-16T14:06:23.876Z,2.70
2018-07-16T14:08:52.142Z,2.67
2018-07-16T14:11:20.413Z,4.00
2018-07-16T14:13:48.689Z,3.87
2018-07-16T14:16:16.966Z,3.20
2018-07-16T14:18:45.280Z,2.50
2018-07-16T14:21:13.606Z,2.70
2018-07-16T14:23:42.353Z,2.50
2018-07-16T14:26:10.738Z,3.00
2018-07-16T14:28:39.006Z,2.80
2018-07-16T14:31:07.287Z,2.50
2018-07-16T14:33:35.646Z,2.83
2018-07-16T14:36:04.009Z,3.90
2018-07-16T14:38:32.288Z,2.63
2018-07-16T14:41:00.728Z,2.77
2018-07-16T14:43:29.097Z,2.80
2018-07-16T14:45:57.475Z,2.77
2018-07-16T14:48:25.747Z,2.83
2018-07-16T14:50:54.154Z,3.20
2018-07-16T14:53:22.436Z,2.80
2018-07-16T14:55:50.704Z,4.67
2018-07-16T14:58:18.976Z,2.90
2018-07-16T15:00:47.361Z,2.77
2018-07-16T15:03:15.627Z,2.80
2018-07-16T15:05:44.003Z,2.83
2018-07-16T15:08:12.317Z,4.00
2018-07-16T15:10:40.721Z,2.77
2018-07-16T15:13:09.087Z,3.87
2018-07-16T15:15:37.360Z,3.60
2018-07-16T15:18:05.953Z,4.30
2018-07-16T15:20:34.410Z,6.63
2018-07-16T15:23:02.517Z,4.63
2018-07-16T15:25:30.933Z,2.47
2018-07-16T15:27:59.385Z,3.47
2018-07-16T15:30:27.854Z,3.50
2018-07-16T15:32:56.136Z,2.83
2018-07-16T15:35:24.501Z,2.40
2018-07-16T15:37:53.050Z,2.67
2018-07-16T15:40:21.315Z,4.80
2018-07-16T15:42:49.700Z,5.73
2018-07-16T15:45:17.993Z,4.50
2018-07-16T15:47:46.349Z,3.17
2018-07-16T15:50:14.623Z,3.43
2018-07-16T15:52:42.895Z,3.50
2018-07-16T15:55:11.189Z,3.07
2018-07-16T15:57:39.476Z,3.70
2018-07-16T16:00:07.728Z,3.40
2018-07-16T16:02:36.121Z,3.50
2018-07-16T16:05:04.453Z,3.40
2018-07-16T16:07:33.151Z,3.47
2018-07-16T16:10:02.580Z,4.77
2018-07-16T16:12:30.861Z,3.63
2018-07-16T16:14:59.260Z,3.70
2018-07-16T16:17:27.561Z,4.20
2018-07-16T16:19:55.865Z,3.80
2018-07-16T16:22:24.162Z,5.33
2018-07-16T16:24:52.418Z,4.33
2018-07-16T16:27:20.733Z,4.00
2018-07-16T16:29:49.199Z,4.67
2018-07-16T16:32:17.829Z,4.03
2018-07-16T16:34:46.184Z,4.37
2018-07-16T16:37:14.613Z,2.60
2018-07-16T16:39:42.995Z,2.97
2018-07-16T16:42:11.420Z,2.83
2018-07-16T16:44:39.704Z,4.05
2018-07-16T16:47:09.669Z,2.95
2018-07-16T16:49:38.594Z,3.30
2018-07-16T16:52:14.009Z,3.83
2018-07-16T16:54:42.682Z,3.35
2018-07-16T16:57:11.545Z,3.10
2018-07-16T16:59:40.077Z,3.30
2018-07-16T17:02:08.897Z,4.35
2018-07-16T17:04:37.226Z,3.50
2018-07-16T17:07:05.763Z,5.30
2018-07-16T17:09:34.197Z,4.20
2018-07-16T17:12:02.642Z,3.65
2018-07-16T17:14:30.909Z,4.45
2018-07-16T17:16:59.153Z,3.62
2018-07-16T17:19:27.459Z,4.12
2018-07-16T17:21:55.738Z,3.72
2018-07-16T17:24:24.216Z,4.53
2018-07-16T17:26:52.489Z,3.67
2018-07-16T17:29:21.068Z,5.10
2018-07-16T17:31:49.500Z,3.47
2018-07-16T17:34:17.792Z,5.12
2018-07-16T17:36:46.431Z,3.83
2018-07-16T17:39:15.079Z,5.37
2018-07-16T17:41:43.343Z,3.80
2018-07-16T17:44:11.633Z,3.30
2018-07-16T17:46:39.914Z,4.05
2018-07-16T17:49:08.287Z,3.95
2018-07-16T17:51:36.770Z,4.67
2018-07-16T17:54:05.407Z,3.87
2018-07-16T17:56:34.178Z,3.87
2018-07-16T17:59:02.437Z,4.85
2018-07-16T18:01:30.716Z,7.10
2018-07-16T18:03:58.994Z,5.15
2018-07-16T18:06:27.369Z,4.62
2018-07-16T18:08:55.670Z,5.60
2018-07-16T18:11:23.911Z,5.67
2018-07-16T18:13:52.241Z,5.10
2018-07-16T18:16:20.520Z,5.63
2018-07-16T18:18:48.808Z,5.57
2018-07-16T18:21:17.080Z,4.97
2018-07-16T18:23:45.429Z,3.93
2018-07-16T18:26:13.684Z,6.10
2018-07-16T18:28:41.945Z,3.50
2018-07-16T18:31:10.217Z,3.73
2018-07-16T18:33:38.512Z,3.27
2018-07-16T18:36:06.793Z,3.27
2018-07-16T18:38:35.049Z,5.40
2018-07-16T18:41:03.449Z,3.33
2018-07-16T18:43:31.749Z,4.63
2018-07-16T18:46:00.009Z,3.47
2018-07-16T18:48:28.321Z,3.30
2018-07-16T18:50:56.584Z,3.43
2018-07-16T18:53:24.861Z,3.63
2018-07-16T18:55:53.142Z,3.67
2018-07-16T18:58:21.425Z,4.17
2018-07-16T19:00:49.680Z,3.87
2018-07-16T19:03:21.088Z,3.70
2018-07-16T19:05:49.493Z,5.10
2018-07-16T19:08:17.759Z,6.77
2018-07-16T19:10:46.007Z,5.47
2018-07-16T19:13:14.375Z,5.00
2018-07-16T19:15:42.720Z,4.77
2018-07-16T19:18:11.137Z,7.27
2018-07-16T19:20:39.495Z,5.50
2018-07-16T19:23:07.791Z,6.87
2018-07-16T19:25:36.188Z,5.87
2018-07-16T19:28:04.472Z,6.80
2018-07-16T19:30:32.808Z,5.43
2018-07-16T19:33:01.184Z,6.43
2018-07-16T19:35:29.581Z,6.80
2018-07-16T19:37:57.917Z,6.53
2018-07-16T19:40:26.304Z,6.53
2018-07-16T19:42:54.571Z,6.00
2018-07-16T19:45:22.843Z,7.00
2018-07-16T19:47:51.108Z,7.13
2018-07-16T19:50:19.460Z,8.43
2018-07-16T19:52:47.725Z,6.83
2018-07-16T19:55:16.144Z,8.00
2018-07-16T19:57:44.384Z,6.40
2018-07-16T20:00:12.639Z,5.90
2018-07-16T20:02:41.054Z,7.23
2018-07-16T20:05:09.338Z,6.47
2018-07-16T20:07:37.645Z,6.93
2018-07-16T20:10:06.158Z,5.73
2018-07-16T20:12:35.867Z,7.07
2018-07-16T20:15:04.919Z,6.07
2018-07-16T20:17:33.294Z,5.97
2018-07-16T20:20:01.606Z,5.93
2018-07-16T20:22:30.304Z,6.07
2018-07-16T20:24:59.118Z,7.87
2018-07-16T20:27:27.421Z,6.77
2018-07-16T20:29:55.752Z,9.40
2018-07-16T20:32:24.084Z,8.90
2018-07-16T20:34:52.336Z,5.83
2018-07-16T20:37:20.588Z,6.60
2018-07-16T20:39:49.032Z,6.10
2018-07-16T20:42:17.373Z,8.80
2018-07-16T20:44:45.643Z,6.53
2018-07-16T20:51:58.564Z,5.93
2018-07-16T20:54:26.839Z,7.47
2018-07-16T20:56:55.113Z,6.17
2018-07-16T20:59:23.416Z,5.87
2018-07-16T21:01:51.739Z,6.37
2018-07-16T21:04:20.119Z,5.93
2018-07-16T21:06:48.396Z,6.70
2018-07-16T21:09:16.645Z,6.40
2018-07-16T21:11:44.655Z,6.87
2018-07-16T21:14:12.900Z,7.20
2018-07-16T21:16:41.270Z,10.50
2018-07-16T21:19:09.483Z,8.80
2018-07-16T21:21:37.805Z,8.23
2018-07-16T21:24:06.137Z,8.83
2018-07-16T21:26:34.392Z,6.83
2018-07-16T21:29:02.680Z,6.73
2018-07-16T21:31:31.001Z,6.43
2018-07-16T21:33:59.289Z,7.47
2018-07-16T21:36:27.552Z,8.07
2018-07-16T21:38:55.828Z,8.13
2018-07-16T21:41:24.089Z,10.47
2018-07-16T21:43:52.425Z,7.30
2018-07-16T21:46:20.648Z,8.73
2018-07-16T21:48:48.985Z,10.47
2018-07-16T21:51:17.244Z,9.83
2018-07-16T21:53:45.508Z,8.70
2018-07-16T21:56:13.865Z,9.40
2018-07-16T21:58:42.137Z,7.80
2018-07-16T22:01:10.465Z,8.50
2018-07-16T22:03:38.748Z,9.40
2018-07-16T22:06:07.118Z,9.40
2018-07-16T22:11:09.929Z,12.27
2018-07-16T22:13:38.221Z,14.43
2018-07-16T22:16:06.649Z,12.33
2018-07-16T22:18:34.845Z,12.30
2018-07-16T22:21:03.172Z,11.00
2018-07-16T22:23:31.444Z,11.10
2018-07-16T22:25:59.723Z,11.43
2018-07-16T22:28:28.726Z,11.70
2018-07-16T22:30:56.973Z,10.30
2018-07-16T22:33:25.224Z,10.20
2018-07-16T22:35:53.509Z,9.80
2018-07-16T22:38:21.880Z,7.77
2018-07-16T22:40:50.903Z,10.30
2018-07-16T22:43:19.152Z,8.90
2018-07-16T22:45:47.416Z,10.53
2018-07-16T22:48:15.670Z,8.87
2018-07-16T22:50:43.957Z,8.07
2018-07-16T22:53:12.271Z,7.60
2018-07-16T22:55:40.598Z,7.23
2018-07-16T22:58:08.921Z,10.03
2018-07-16T23:00:37.176Z,12.97
2018-07-16T23:03:05.473Z,11.60
2018-07-16T23:05:33.451Z,7.73
2018-07-16T23:08:01.720Z,10.10
2018-07-16T23:10:30.008Z,8.23
2018-07-16T23:12:58.283Z,8.37
2018-07-16T23:15:26.524Z,7.70
2018-07-16T23:17:54.784Z,9.20
2018-07-16T23:20:23.056Z,7.57
2018-07-16T23:22:56.920Z,7.83
2018-07-16T23:25:25.176Z,7.67
2018-07-16T23:27:53.426Z,7.33
2018-07-16T23:30:21.697Z,7.53
2018-07-16T23:32:50.081Z,7.27
2018-07-16T23:35:18.516Z,7.43
2018-07-16T23:37:47.076Z,6.90
2018-07-16T23:40:15.400Z,8.80
2018-07-16T23:42:45.184Z,9.17
2018-07-16T23:45:13.574Z,7.73
2018-07-16T23:47:48.224Z,7.70
2018-07-16T23:50:16.217Z,8.53
2018-07-16T23:52:44.686Z,10.40
2018-07-16T23:55:12.954Z,13.07
2018-07-16T23:57:41.221Z,11.37
